createdAt,value
2023-02-11T00:01:29.273Z,3.53
2023-02-11T00:06:34.505Z,3.78
2023-02-11T00:11:38.364Z,3.45
2023-02-11T00:16:43.561Z,3.15
2023-02-11T00:21:47.389Z,3.03
2023-02-11T00:26:51.087Z,3.15
2023-02-11T00:31:56.225Z,3.60
2023-02-11T00:37:01.461Z,3.20
2023-02-11T00:42:05.320Z,2.95
2023-02-11T00:47:10.599Z,2.83
2023-02-11T00:52:14.268Z,3.05
2023-02-11T00:57:18.032Z,2.70
2023-02-11T01:02:23.329Z,3.10
2023-02-11T01:07:27.175Z,2.75
2023-02-11T01:12:33.527Z,2.78
2023-02-11T01:22:43.845Z,2.85
2023-02-11T01:27:47.558Z,2.88
2023-02-11T01:32:52.671Z,2.58
2023-02-11T01:37:56.408Z,3.22
2023-02-11T01:43:01.231Z,2.85
2023-02-11T01:48:06.711Z,3.25
2023-02-11T01:53:26.035Z,3.08
2023-02-11T01:58:32.761Z,3.00
2023-02-11T02:03:42.888Z,3.20
2023-02-11T02:08:54.408Z,3.28
2023-02-11T02:13:58.203Z,3.30
2023-02-11T02:19:21.213Z,3.22
2023-02-11T02:24:57.857Z,3.05
2023-02-11T02:30:30.073Z,3.85
2023-02-11T02:35:41.998Z,3.30
2023-02-11T02:40:49.837Z,3.38
2023-02-11T02:45:53.645Z,4.18
2023-02-11T02:51:10.118Z,3.83
2023-02-11T02:56:23.808Z,4.22
2023-02-11T03:01:36.560Z,4.32
2023-02-11T03:06:49.114Z,3.78
2023-02-11T03:11:52.886Z,4.55
2023-02-11T03:16:58.553Z,4.20
2023-02-11T03:22:06.530Z,4.32
2023-02-11T03:27:17.480Z,4.88
2023-02-11T03:32:26.754Z,4.13
2023-02-11T03:37:36.399Z,3.97
2023-02-11T03:42:44.553Z,4.28
2023-02-11T03:47:52.047Z,4.43
2023-02-11T03:52:58.558Z,5.07
2023-02-11T03:58:02.545Z,4.60
2023-02-11T04:03:06.671Z,4.35
2023-02-11T04:08:11.974Z,5.05
2023-02-11T04:13:15.659Z,4.13
2023-02-11T04:18:19.370Z,4.70
2023-02-11T04:23:24.413Z,5.00
2023-02-11T04:28:29.609Z,4.80
2023-02-11T04:33:33.307Z,4.55
2023-02-11T04:38:38.389Z,5.10
2023-02-11T04:43:42.082Z,5.00
2023-02-11T04:48:45.790Z,5.15
2023-02-11T04:53:50.861Z,5.45
2023-02-11T04:58:54.565Z,5.03
2023-02-11T05:03:58.506Z,5.00
2023-02-11T05:09:03.608Z,5.43
2023-02-11T05:14:07.654Z,5.53
2023-02-11T05:19:11.440Z,5.95
2023-02-11T05:24:16.478Z,5.05
2023-02-11T05:29:20.391Z,5.32
2023-02-11T05:34:24.093Z,5.28
2023-02-11T05:39:29.078Z,4.90
2023-02-11T05:44:32.743Z,6.28
2023-02-11T05:49:36.918Z,6.22
2023-02-11T05:54:42.134Z,6.40
2023-02-11T05:59:45.864Z,6.97
2023-02-11T06:04:49.641Z,6.82
2023-02-11T06:09:54.692Z,7.47
2023-02-11T06:14:58.314Z,8.05
2023-02-11T06:20:02.958Z,7.72
2023-02-11T06:25:08.594Z,8.00
2023-02-11T06:30:13.489Z,8.60
2023-02-11T06:35:17.239Z,8.63
2023-02-11T06:40:22.520Z,9.13
2023-02-11T06:45:26.274Z,10.13
2023-02-11T06:50:30.020Z,10.27
2023-02-11T06:55:36.309Z,10.07
2023-02-11T07:00:40.129Z,10.70
2023-02-11T07:05:44.524Z,10.98
2023-02-11T07:10:49.552Z,9.80
2023-02-11T07:15:53.706Z,12.02
2023-02-11T07:20:57.517Z,12.52
2023-02-11T07:26:05.408Z,13.07
2023-02-11T07:31:12.045Z,13.23
2023-02-11T07:36:17.455Z,12.15
2023-02-11T07:41:24.761Z,13.50
2023-02-11T07:46:29.234Z,12.88
2023-02-11T07:51:33.044Z,13.85
2023-02-11T07:56:38.469Z,13.07
2023-02-11T08:01:42.227Z,13.88
2023-02-11T08:06:46.083Z,14.35
2023-02-11T08:11:51.174Z,13.73
2023-02-11T08:16:54.978Z,15.52
2023-02-11T08:21:59.957Z,14.45
2023-02-11T08:27:05.215Z,15.70
2023-02-11T08:32:09.165Z,14.80
2023-02-11T08:37:13.042Z,14.80
2023-02-11T08:42:18.573Z,15.60
2023-02-11T08:47:22.430Z,15.18
2023-02-11T08:52:26.236Z,15.27
2023-02-11T08:57:31.837Z,16.65
2023-02-11T09:02:35.655Z,15.88
2023-02-11T09:07:39.398Z,16.80
2023-02-11T09:12:44.455Z,15.48
2023-02-11T09:17:48.117Z,15.45
2023-02-11T09:22:52.226Z,17.20
2023-02-11T09:27:57.333Z,16.55
2023-02-11T09:33:01.106Z,16.67
2023-02-11T09:38:04.872Z,15.07
2023-02-11T09:43:13.218Z,15.80
2023-02-11T09:48:19.134Z,15.65
2023-02-11T09:53:26.126Z,15.55
2023-02-11T09:58:34.375Z,14.60
2023-02-11T10:04:05.560Z,14.00
2023-02-11T10:09:29.477Z,15.02
2023-02-11T10:14:57.716Z,15.27
2023-02-11T10:20:18.754Z,16.10
2023-02-11T10:25:25.023Z,14.80
2023-02-11T10:30:33.756Z,14.97
2023-02-11T10:35:39.045Z,16.33
2023-02-11T10:40:43.057Z,14.95
2023-02-11T10:45:51.358Z,15.57
2023-02-11T10:51:08.989Z,15.80
2023-02-11T10:56:21.098Z,15.93
2023-02-11T11:01:40.340Z,14.75
2023-02-11T11:06:44.035Z,14.90
2023-02-11T11:11:54.356Z,14.10
2023-02-11T11:17:02.379Z,15.00
2023-02-11T11:22:06.205Z,14.35
2023-02-11T11:27:21.090Z,15.68
2023-02-11T11:32:30.239Z,14.02
2023-02-11T11:37:36.120Z,14.70
2023-02-11T11:42:41.123Z,13.23
2023-02-11T11:47:52.817Z,13.85
2023-02-11T11:53:04.133Z,13.68
2023-02-11T11:58:14.653Z,12.80
2023-02-11T12:03:58.432Z,14.40
2023-02-11T12:09:10.996Z,13.60
2023-02-11T12:14:25.212Z,13.73
2023-02-11T12:19:54.908Z,14.07
2023-02-11T12:25:22.105Z,14.38
2023-02-11T12:30:45.514Z,13.77
2023-02-11T12:35:57.565Z,14.40
2023-02-11T12:41:18.004Z,14.43
2023-02-11T12:46:37.432Z,13.00
2023-02-11T12:51:56.699Z,15.07
2023-02-11T12:57:04.948Z,14.77
2023-02-11T13:02:22.989Z,14.75
2023-02-11T13:07:34.257Z,14.40
2023-02-11T13:12:56.223Z,14.20
2023-02-11T13:18:06.437Z,14.18
2023-02-11T13:23:24.545Z,14.45
2023-02-11T13:28:42.978Z,13.52
2023-02-11T13:33:49.684Z,12.88
2023-02-11T13:39:03.411Z,12.55
2023-02-11T13:44:22.479Z,13.80
2023-02-11T13:49:31.007Z,12.30
2023-02-11T13:54:39.929Z,12.10
2023-02-11T13:59:48.515Z,12.20
2023-02-11T14:05:41.873Z,12.45
2023-02-11T14:10:55.675Z,12.85
2023-02-11T14:16:07.998Z,12.40
2023-02-11T14:21:14.225Z,12.23
2023-02-11T14:26:35.921Z,12.67
2023-02-11T14:31:46.826Z,11.50
2023-02-11T14:37:11.875Z,12.35
2023-02-11T14:42:21.014Z,11.60
2023-02-11T14:47:30.597Z,11.52
2023-02-11T14:52:36.324Z,10.60
2023-02-11T14:57:44.530Z,12.23
2023-02-11T15:02:49.078Z,10.45
2023-02-11T15:07:54.701Z,10.25
2023-02-11T15:13:02.339Z,9.40
2023-02-11T15:18:06.720Z,9.68
2023-02-11T15:23:19.988Z,8.93
2023-02-11T15:28:28.977Z,8.88
2023-02-11T15:33:33.975Z,8.15
2023-02-11T15:38:37.683Z,8.25
2023-02-11T15:43:48.616Z,8.43
2023-02-11T15:48:53.856Z,8.35
2023-02-11T15:53:59.595Z,8.50
2023-02-11T15:59:16.817Z,7.40
2023-02-11T16:04:23.372Z,7.95
2023-02-11T16:09:34.033Z,8.13
2023-02-11T16:14:39.390Z,7.53
2023-02-11T16:19:46.687Z,7.38
2023-02-11T16:24:52.464Z,7.38
2023-02-11T16:29:58.798Z,8.68
2023-02-11T16:35:02.675Z,6.93
2023-02-11T16:40:07.664Z,8.27
2023-02-11T16:45:13.659Z,7.05
2023-02-11T16:50:23.635Z,8.50
2023-02-11T16:55:27.474Z,7.43
2023-02-11T17:00:32.708Z,7.72
2023-02-11T17:05:53.201Z,8.35
2023-02-11T17:10:58.560Z,7.00
2023-02-11T17:16:03.707Z,7.93
2023-02-11T17:21:08.318Z,7.50
2023-02-11T17:26:12.063Z,7.25
2023-02-11T17:31:17.307Z,8.18
2023-02-11T17:36:21.150Z,7.05
2023-02-11T17:41:24.834Z,7.88
2023-02-11T17:46:30.129Z,7.45
2023-02-11T17:51:35.413Z,6.57
2023-02-11T17:56:39.937Z,7.05
2023-02-11T18:01:45.443Z,6.78
2023-02-11T18:06:50.234Z,6.53
2023-02-11T18:11:54.347Z,7.50
2023-02-11T18:16:59.452Z,6.38
2023-02-11T18:22:04.406Z,6.95
2023-02-11T18:27:08.368Z,7.00
2023-02-11T18:32:13.957Z,7.32
2023-02-11T18:37:17.870Z,6.70
2023-02-11T18:42:21.641Z,6.72
2023-02-11T18:47:26.686Z,8.02
2023-02-11T18:52:31.366Z,7.80
2023-02-11T18:57:35.227Z,7.07
2023-02-11T19:02:40.451Z,6.63
2023-02-11T19:07:44.208Z,8.55
2023-02-11T19:12:47.910Z,7.95
2023-02-11T19:17:53.423Z,7.15
2023-02-11T19:22:57.096Z,8.02
2023-02-11T19:28:00.988Z,7.25
2023-02-11T19:33:07.761Z,6.68
2023-02-11T19:38:15.738Z,6.40
2023-02-11T19:43:19.480Z,6.40
2023-02-11T19:48:25.389Z,6.93
2023-02-11T19:53:29.138Z,6.68
2023-02-11T19:58:32.974Z,6.90
2023-02-11T20:03:40.735Z,6.78
2023-02-11T20:08:45.852Z,5.57
2023-02-11T20:13:49.672Z,6.15
2023-02-11T20:18:55.974Z,6.78
2023-02-11T20:24:00.374Z,6.17
2023-02-11T20:29:04.273Z,6.43
2023-02-11T20:34:09.417Z,6.45
2023-02-11T20:39:17.227Z,5.95
2023-02-11T20:44:21.794Z,6.05
2023-02-11T20:49:29.396Z,6.28
2023-02-11T20:54:33.107Z,7.40
2023-02-11T20:59:36.827Z,6.57
2023-02-11T21:04:41.875Z,6.07
2023-02-11T21:09:45.718Z,6.75
2023-02-11T21:14:49.422Z,5.97
2023-02-11T21:19:55.606Z,5.60
2023-02-11T21:25:01.045Z,5.83
2023-02-11T21:30:05.224Z,5.47
2023-02-11T21:35:10.777Z,5.00
2023-02-11T21:40:14.980Z,5.10
2023-02-11T21:45:18.735Z,5.32
2023-02-11T21:50:23.950Z,6.00
2023-02-11T21:55:27.623Z,5.30
2023-02-11T22:00:31.882Z,4.85
2023-02-11T22:05:40.248Z,5.53
2023-02-11T22:10:43.965Z,4.97
2023-02-11T22:15:58.604Z,5.22
2023-02-11T22:21:05.957Z,4.97
2023-02-11T22:26:12.480Z,4.18
2023-02-11T22:31:18.016Z,4.30
2023-02-11T22:36:24.893Z,4.68
2023-02-11T22:41:28.777Z,4.75
2023-02-11T22:46:32.535Z,5.32
2023-02-11T22:51:37.910Z,5.22
2023-02-11T22:56:41.831Z,5.68
2023-02-11T23:01:46.845Z,5.93
2023-02-11T23:06:51.969Z,5.85
2023-02-11T23:11:55.752Z,6.25
2023-02-11T23:16:59.568Z,5.97
2023-02-11T23:22:05.487Z,5.50
2023-02-11T23:27:09.250Z,6.65
2023-02-11T23:32:13.193Z,5.75
2023-02-11T23:37:20.883Z,6.40
2023-02-11T23:42:24.577Z,5.70
2023-02-11T23:47:41.616Z,5.97
2023-02-11T23:57:50.279Z,6.15
